sensor_id;sensor_type;location;lat;lon;timestamp;pressure;altitude;pressure_sealevel;temperature;humidity
76378;BME280;65200;49.500;8.654;2024-02-26T00:01:33;98452.81;;;14.24;41.97
76378;BME280;65200;49.500;8.654;2024-02-26T00:04:04;98448.16;;;14.10;42.49
76378;BME280;65200;49.500;8.654;2024-02-26T00:06:35;98446.75;;;14.39;41.47
76378;BME280;65200;49.500;8.654;2024-02-26T00:09:03;98451.53;;;14.32;41.65
76378;BME280;65200;49.500;8.654;2024-02-26T00:11:32;98445.84;;;13.92;41.13
76378;BME280;65200;49.500;8.654;2024-02-26T00:14:00;98454.09;;;14.17;41.52
76378;BME280;65200;49.500;8.654;2024-02-26T00:16:27;98465.56;;;14.34;40.29
76378;BME280;65200;49.500;8.654;2024-02-26T00:18:56;98450.06;;;14.56;41.03
76378;BME280;65200;49.500;8.654;2024-02-26T00:21:24;98448.94;;;14.47;41.49
76378;BME280;65200;49.500;8.654;2024-02-26T00:23:52;98444.28;;;14.01;42.24
76378;BME280;65200;49.500;8.654;2024-02-26T00:26:20;98441.19;;;14.19;41.09
76378;BME280;65200;49.500;8.654;2024-02-26T00:28:47;98446.47;;;14.04;41.95
76378;BME280;65200;49.500;8.654;2024-02-26T00:31:16;98448.84;;;14.32;40.74
76378;BME280;65200;49.500;8.654;2024-02-26T00:33:43;98457.00;;;14.10;41.48
76378;BME280;65200;49.500;8.654;2024-02-26T00:36:12;98462.25;;;14.68;40.88
76378;BME280;65200;49.500;8.654;2024-02-26T00:38:40;98469.31;;;14.33;41.16
76378;BME280;65200;49.500;8.654;2024-02-26T00:41:09;98464.34;;;14.20;40.63
76378;BME280;65200;49.500;8.654;2024-02-26T00:43:37;98474.72;;;14.33;40.26
76378;BME280;65200;49.500;8.654;2024-02-26T00:46:05;98472.81;;;14.80;40.22
76378;BME280;65200;49.500;8.654;2024-02-26T00:48:33;98467.13;;;14.25;40.80
76378;BME280;65200;49.500;8.654;2024-02-26T00:51:01;98475.44;;;14.60;40.15
76378;BME280;65200;49.500;8.654;2024-02-26T00:53:33;98492.66;;;14.59;40.20
76378;BME280;65200;49.500;8.654;2024-02-26T00:56:00;98500.09;;;14.37;39.66
76378;BME280;65200;49.500;8.654;2024-02-26T00:58:28;98503.38;;;14.44;39.33
76378;BME280;65200;49.500;8.654;2024-02-26T01:00:56;98501.00;;;14.57;40.14
76378;BME280;65200;49.500;8.654;2024-02-26T01:03:23;98508.94;;;14.32;39.85
76378;BME280;65200;49.500;8.654;2024-02-26T01:05:51;98508.91;;;14.69;39.48
76378;BME280;65200;49.500;8.654;2024-02-26T01:08:24;98501.81;;;14.58;39.34
76378;BME280;65200;49.500;8.654;2024-02-26T01:10:53;98509.06;;;14.52;38.56
76378;BME280;65200;49.500;8.654;2024-02-26T01:13:20;98504.94;;;14.86;38.27
76378;BME280;65200;49.500;8.654;2024-02-26T01:15:48;98517.41;;;14.97;39.54
76378;BME280;65200;49.500;8.654;2024-02-26T01:18:15;98518.78;;;14.22;39.73
76378;BME280;65200;49.500;8.654;2024-02-26T01:20:43;98513.97;;;14.55;39.24
76378;BME280;65200;49.500;8.654;2024-02-26T01:23:12;98512.09;;;14.61;39.44
76378;BME280;65200;49.500;8.654;2024-02-26T01:25:39;98522.53;;;14.47;39.85
76378;BME280;65200;49.500;8.654;2024-02-26T01:28:08;98513.59;;;14.88;39.25
76378;BME280;65200;49.500;8.654;2024-02-26T01:30:36;98517.53;;;14.71;39.27
76378;BME280;65200;49.500;8.654;2024-02-26T01:33:04;98520.59;;;14.43;40.20
76378;BME280;65200;49.500;8.654;2024-02-26T01:35:32;98521.69;;;14.93;39.35
76378;BME280;65200;49.500;8.654;2024-02-26T01:37:59;98531.44;;;14.99;39.26
76378;BME280;65200;49.500;8.654;2024-02-26T01:40:27;98541.47;;;14.62;38.66
76378;BME280;65200;49.500;8.654;2024-02-26T01:42:55;98535.78;;;14.54;38.89
76378;BME280;65200;49.500;8.654;2024-02-26T01:45:24;98532.84;;;14.55;38.99
76378;BME280;65200;49.500;8.654;2024-02-26T01:47:53;98539.16;;;14.34;39.19
76378;BME280;65200;49.500;8.654;2024-02-26T01:50:22;98544.38;;;14.92;38.22
76378;BME280;65200;49.500;8.654;2024-02-26T01:52:51;98545.03;;;14.68;39.51
76378;BME280;65200;49.500;8.654;2024-02-26T01:55:20;98550.53;;;14.83;39.04
76378;BME280;65200;49.500;8.654;2024-02-26T01:57:50;98548.31;;;14.80;39.08
76378;BME280;65200;49.500;8.654;2024-02-26T02:00:18;98548.31;;;15.32;38.75
76378;BME280;65200;49.500;8.654;2024-02-26T02:02:49;98553.75;;;14.43;41.24
76378;BME280;65200;49.500;8.654;2024-02-26T02:05:17;98558.75;;;14.30;41.15
76378;BME280;65200;49.500;8.654;2024-02-26T02:07:45;98550.56;;;14.15;40.50
76378;BME280;65200;49.500;8.654;2024-02-26T02:10:13;98568.34;;;14.47;41.81
76378;BME280;65200;49.500;8.654;2024-02-26T02:12:40;98569.00;;;14.64;40.62
76378;BME280;65200;49.500;8.654;2024-02-26T02:15:08;98557.25;;;14.39;42.14
76378;BME280;65200;49.500;8.654;2024-02-26T02:17:36;98564.41;;;14.60;41.32
76378;BME280;65200;49.500;8.654;2024-02-26T02:20:14;98564.44;;;14.65;41.50
76378;BME280;65200;49.500;8.654;2024-02-26T02:22:44;98560.44;;;14.72;42.11
76378;BME280;65200;49.500;8.654;2024-02-26T02:25:11;98568.13;;;14.22;43.51
76378;BME280;65200;49.500;8.654;2024-02-26T02:27:39;98562.81;;;14.69;41.52
76378;BME280;65200;49.500;8.654;2024-02-26T02:30:07;98553.47;;;14.86;41.63
76378;BME280;65200;49.500;8.654;2024-02-26T02:32:36;98573.41;;;14.80;43.01
76378;BME280;65200;49.500;8.654;2024-02-26T02:35:05;98562.75;;;14.59;43.28
76378;BME280;65200;49.500;8.654;2024-02-26T02:37:33;98567.78;;;14.14;44.25
76378;BME280;65200;49.500;8.654;2024-02-26T02:40:03;98571.72;;;14.28;45.08
76378;BME280;65200;49.500;8.654;2024-02-26T02:42:31;98568.34;;;14.16;46.15
76378;BME280;65200;49.500;8.654;2024-02-26T02:44:59;98564.59;;;13.90;48.26
76378;BME280;65200;49.500;8.654;2024-02-26T02:47:26;98567.03;;;13.92;49.44
76378;BME280;65200;49.500;8.654;2024-02-26T02:49:54;98562.75;;;13.96;47.98
76378;BME280;65200;49.500;8.654;2024-02-26T02:52:21;98565.53;;;14.32;47.96
76378;BME280;65200;49.500;8.654;2024-02-26T02:54:49;98578.53;;;14.14;50.37
76378;BME280;65200;49.500;8.654;2024-02-26T02:57:18;98575.63;;;13.40;50.96
76378;BME280;65200;49.500;8.654;2024-02-26T02:59:46;98577.88;;;13.48;51.28
76378;BME280;65200;49.500;8.654;2024-02-26T03:02:13;98581.63;;;13.04;52.46
76378;BME280;65200;49.500;8.654;2024-02-26T03:04:41;98579.09;;;13.36;51.93
76378;BME280;65200;49.500;8.654;2024-02-26T03:07:08;98593.50;;;13.73;50.95
76378;BME280;65200;49.500;8.654;2024-02-26T03:09:36;98588.94;;;13.73;52.20
76378;BME280;65200;49.500;8.654;2024-02-26T03:12:04;98590.75;;;13.68;53.03
76378;BME280;65200;49.500;8.654;2024-02-26T03:14:33;98597.91;;;13.36;53.98
76378;BME280;65200;49.500;8.654;2024-02-26T03:17:00;98590.09;;;12.96;53.87
76378;BME280;65200;49.500;8.654;2024-02-26T03:19:28;98592.53;;;13.57;52.38
76378;BME280;65200;49.500;8.654;2024-02-26T03:21:56;98591.84;;;13.45;51.59
76378;BME280;65200;49.500;8.654;2024-02-26T03:24:23;98591.13;;;13.76;51.87
76378;BME280;65200;49.500;8.654;2024-02-26T03:26:51;98588.69;;;14.02;51.95
76378;BME280;65200;49.500;8.654;2024-02-26T03:29:19;98595.75;;;14.08;51.87
76378;BME280;65200;49.500;8.654;2024-02-26T03:31:48;98598.38;;;13.49;51.82
76378;BME280;65200;49.500;8.654;2024-02-26T03:34:15;98597.34;;;13.34;54.19
76378;BME280;65200;49.500;8.654;2024-02-26T03:36:45;98604.13;;;13.36;54.03
76378;BME280;65200;49.500;8.654;2024-02-26T03:39:12;98599.06;;;13.18;53.85
76378;BME280;65200;49.500;8.654;2024-02-26T03:41:40;98594.31;;;13.25;54.37
76378;BME280;65200;49.500;8.654;2024-02-26T03:44:08;98598.66;;;12.93;56.04
76378;BME280;65200;49.500;8.654;2024-02-26T03:46:36;98595.09;;;13.26;56.20
76378;BME280;65200;49.500;8.654;2024-02-26T03:49:05;98597.78;;;13.04;59.33
76378;BME280;65200;49.500;8.654;2024-02-26T03:51:32;98600.53;;;13.52;54.95
76378;BME280;65200;49.500;8.654;2024-02-26T03:54:00;98597.19;;;13.19;55.64
76378;BME280;65200;49.500;8.654;2024-02-26T03:56:27;98603.09;;;13.21;58.30
76378;BME280;65200;49.500;8.654;2024-02-26T03:58:55;98594.69;;;13.12;59.00
76378;BME280;65200;49.500;8.654;2024-02-26T04:01:22;98593.22;;;12.88;58.82
76378;BME280;65200;49.500;8.654;2024-02-26T04:03:50;98596.22;;;12.37;59.50
76378;BME280;65200;49.500;8.654;2024-02-26T04:06:20;98589.34;;;12.79;58.57
76378;BME280;65200;49.500;8.654;2024-02-26T04:08:49;98581.47;;;12.56;60.04
76378;BME280;65200;49.500;8.654;2024-02-26T04:11:16;98581.25;;;12.96;59.57
76378;BME280;65200;49.500;8.654;2024-02-26T04:13:45;98571.06;;;12.26;60.26
76378;BME280;65200;49.500;8.654;2024-02-26T04:16:15;98569.09;;;12.22;63.37
76378;BME280;65200;49.500;8.654;2024-02-26T04:18:43;98565.75;;;12.65;57.92
76378;BME280;65200;49.500;8.654;2024-02-26T04:21:10;98561.00;;;12.72;58.41
76378;BME280;65200;49.500;8.654;2024-02-26T04:23:39;98559.22;;;12.44;59.02
76378;BME280;65200;49.500;8.654;2024-02-26T04:26:07;98552.91;;;12.50;58.58
76378;BME280;65200;49.500;8.654;2024-02-26T04:28:35;98550.91;;;12.62;59.86
76378;BME280;65200;49.500;8.654;2024-02-26T04:31:02;98542.50;;;12.37;61.59
76378;BME280;65200;49.500;8.654;2024-02-26T04:33:33;98534.34;;;12.32;58.74
76378;BME280;65200;49.500;8.654;2024-02-26T04:36:02;98539.72;;;12.70;59.62
76378;BME280;65200;49.500;8.654;2024-02-26T04:38:29;98535.84;;;12.61;58.73
76378;BME280;65200;49.500;8.654;2024-02-26T04:40:58;98526.63;;;12.35;58.67
76378;BME280;65200;49.500;8.654;2024-02-26T04:43:26;98534.97;;;12.56;58.17
76378;BME280;65200;49.500;8.654;2024-02-26T04:45:54;98541.38;;;12.71;56.87
76378;BME280;65200;49.500;8.654;2024-02-26T04:48:23;98537.19;;;12.42;59.57
76378;BME280;65200;49.500;8.654;2024-02-26T04:50:51;98523.38;;;12.33;58.51
76378;BME280;65200;49.500;8.654;2024-02-26T04:53:18;98531.84;;;12.64;58.08
76378;BME280;65200;49.500;8.654;2024-02-26T04:55:46;98534.50;;;12.42;57.93
76378;BME280;65200;49.500;8.654;2024-02-26T04:58:15;98541.59;;;12.86;58.61
76378;BME280;65200;49.500;8.654;2024-02-26T05:00:42;98540.13;;;12.79;57.81
76378;BME280;65200;49.500;8.654;2024-02-26T05:03:10;98532.25;;;12.72;60.14
76378;BME280;65200;49.500;8.654;2024-02-26T05:05:39;98530.47;;;12.61;59.18
76378;BME280;65200;49.500;8.654;2024-02-26T05:08:07;98529.69;;;13.20;59.85
76378;BME280;65200;49.500;8.654;2024-02-26T05:10:35;98524.69;;;12.69;59.47
76378;BME280;65200;49.500;8.654;2024-02-26T05:13:05;98524.53;;;12.97;60.67
76378;BME280;65200;49.500;8.654;2024-02-26T05:15:34;98523.94;;;12.35;61.32
76378;BME280;65200;49.500;8.654;2024-02-26T05:18:02;98515.09;;;12.57;61.34
76378;BME280;65200;49.500;8.654;2024-02-26T05:20:31;98521.28;;;12.57;59.84
76378;BME280;65200;49.500;8.654;2024-02-26T05:23:01;98522.16;;;12.63;60.79
76378;BME280;65200;49.500;8.654;2024-02-26T05:25:30;98528.19;;;12.70;58.49
76378;BME280;65200;49.500;8.654;2024-02-26T05:27:58;98534.00;;;12.45;60.67
76378;BME280;65200;49.500;8.654;2024-02-26T05:30:25;98532.38;;;12.44;61.09
76378;BME280;65200;49.500;8.654;2024-02-26T05:32:56;98532.38;;;12.82;59.07
76378;BME280;65200;49.500;8.654;2024-02-26T05:35:24;98538.50;;;12.78;61.11
76378;BME280;65200;49.500;8.654;2024-02-26T05:37:52;98536.31;;;12.36;60.92
76378;BME280;65200;49.500;8.654;2024-02-26T05:40:20;98532.31;;;12.77;60.91
76378;BME280;65200;49.500;8.654;2024-02-26T05:42:48;98535.72;;;12.51;60.30
76378;BME280;65200;49.500;8.654;2024-02-26T05:45:15;98548.69;;;12.76;60.44
76378;BME280;65200;49.500;8.654;2024-02-26T05:47:43;98543.06;;;12.39;60.96
76378;BME280;65200;49.500;8.654;2024-02-26T05:50:12;98551.31;;;12.71;60.11
76378;BME280;65200;49.500;8.654;2024-02-26T05:52:42;98543.31;;;12.76;60.38
76378;BME280;65200;49.500;8.654;2024-02-26T05:55:09;98549.50;;;12.76;60.55
76378;BME280;65200;49.500;8.654;2024-02-26T05:57:37;98547.06;;;12.96;58.95
76378;BME280;65200;49.500;8.654;2024-02-26T06:00:06;98559.72;;;12.96;58.91
76378;BME280;65200;49.500;8.654;2024-02-26T06:02:36;98556.78;;;12.97;59.87
76378;BME280;65200;49.500;8.654;2024-02-26T06:05:04;98564.13;;;13.02;60.63
76378;BME280;65200;49.500;8.654;2024-02-26T06:07:35;98565.22;;;12.84;59.54
76378;BME280;65200;49.500;8.654;2024-02-26T06:10:03;98570.56;;;13.22;59.17
76378;BME280;65200;49.500;8.654;2024-02-26T06:12:31;98578.19;;;13.30;58.57
76378;BME280;65200;49.500;8.654;2024-02-26T06:14:59;98578.06;;;12.99;60.82
76378;BME280;65200;49.500;8.654;2024-02-26T06:17:28;98585.41;;;12.87;59.54
76378;BME280;65200;49.500;8.654;2024-02-26T06:19:55;98589.28;;;13.12;60.60
76378;BME280;65200;49.500;8.654;2024-02-26T06:22:25;98597.75;;;12.66;60.51
76378;BME280;65200;49.500;8.654;2024-02-26T06:24:54;98601.03;;;12.90;60.53
76378;BME280;65200;49.500;8.654;2024-02-26T06:27:22;98612.44;;;12.97;60.29
76378;BME280;65200;49.500;8.654;2024-02-26T06:29:50;98610.34;;;12.82;60.37
76378;BME280;65200;49.500;8.654;2024-02-26T06:32:21;98614.78;;;12.72;59.74
76378;BME280;65200;49.500;8.654;2024-02-26T06:34:49;98619.59;;;12.53;60.08
76378;BME280;65200;49.500;8.654;2024-02-26T06:37:17;98630.34;;;12.91;60.02
76378;BME280;65200;49.500;8.654;2024-02-26T06:39:45;98637.56;;;13.02;59.67
76378;BME280;65200;49.500;8.654;2024-02-26T06:42:14;98639.19;;;12.70;61.18
76378;BME280;65200;49.500;8.654;2024-02-26T06:44:41;98650.09;;;12.97;59.49
76378;BME280;65200;49.500;8.654;2024-02-26T06:47:09;98651.84;;;13.24;59.08
76378;BME280;65200;49.500;8.654;2024-02-26T06:49:38;98651.94;;;12.96;59.95
76378;BME280;65200;49.500;8.654;2024-02-26T06:52:05;98655.19;;;13.31;60.66
76378;BME280;65200;49.500;8.654;2024-02-26T06:54:33;98660.91;;;13.18;58.32
76378;BME280;65200;49.500;8.654;2024-02-26T06:57:01;98663.06;;;13.38;57.92
76378;BME280;65200;49.500;8.654;2024-02-26T06:59:30;98671.25;;;13.26;59.23
76378;BME280;65200;49.500;8.654;2024-02-26T07:01:57;98672.84;;;13.65;57.34
76378;BME280;65200;49.500;8.654;2024-02-26T07:04:25;98676.72;;;13.74;57.74
76378;BME280;65200;49.500;8.654;2024-02-26T07:06:53;98670.88;;;13.39;56.85
76378;BME280;65200;49.500;8.654;2024-02-26T07:09:20;98670.31;;;13.37;57.09
76378;BME280;65200;49.500;8.654;2024-02-26T07:11:48;98667.13;;;13.40;56.03
76378;BME280;65200;49.500;8.654;2024-02-26T07:14:16;98679.25;;;14.29;55.52
76378;BME280;65200;49.500;8.654;2024-02-26T07:16:45;98668.31;;;13.71;54.93
76378;BME280;65200;49.500;8.654;2024-02-26T07:19:13;98671.69;;;13.83;57.08
76378;BME280;65200;49.500;8.654;2024-02-26T07:21:40;98671.81;;;13.50;56.23
76378;BME280;65200;49.500;8.654;2024-02-26T07:24:08;98676.16;;;14.21;57.10
76378;BME280;65200;49.500;8.654;2024-02-26T07:26:35;98681.53;;;13.72;57.04
76378;BME280;65200;49.500;8.654;2024-02-26T07:29:03;98680.75;;;13.99;57.48
76378;BME280;65200;49.500;8.654;2024-02-26T07:31:31;98686.66;;;14.44;56.43
76378;BME280;65200;49.500;8.654;2024-02-26T07:34:00;98683.28;;;13.84;56.31
76378;BME280;65200;49.500;8.654;2024-02-26T07:36:28;98689.25;;;14.12;55.01
76378;BME280;65200;49.500;8.654;2024-02-26T07:38:56;98692.97;;;14.28;56.58
76378;BME280;65200;49.500;8.654;2024-02-26T07:41:23;98699.19;;;14.07;56.27
76378;BME280;65200;49.500;8.654;2024-02-26T07:43:51;98695.00;;;13.13;57.27
76378;BME280;65200;49.500;8.654;2024-02-26T07:46:19;98692.78;;;13.26;56.23
76378;BME280;65200;49.500;8.654;2024-02-26T07:48:46;98693.78;;;13.04;57.87
76378;BME280;65200;49.500;8.654;2024-02-26T07:51:16;98691.91;;;13.42;56.67
76378;BME280;65200;49.500;8.654;2024-02-26T07:53:43;98690.47;;;13.56;57.20
76378;BME280;65200;49.500;8.654;2024-02-26T07:56:11;98683.34;;;13.45;56.82
76378;BME280;65200;49.500;8.654;2024-02-26T07:58:39;98682.28;;;13.08;57.27
76378;BME280;65200;49.500;8.654;2024-02-26T08:01:06;98696.13;;;13.55;57.17
76378;BME280;65200;49.500;8.654;2024-02-26T08:03:34;98687.06;;;13.61;56.53
76378;BME280;65200;49.500;8.654;2024-02-26T08:06:02;98687.03;;;13.39;56.47
76378;BME280;65200;49.500;8.654;2024-02-26T08:08:31;98681.75;;;13.93;57.61
76378;BME280;65200;49.500;8.654;2024-02-26T08:10:59;98684.06;;;14.27;55.13
76378;BME280;65200;49.500;8.654;2024-02-26T08:13:27;98690.13;;;14.18;55.28
76378;BME280;65200;49.500;8.654;2024-02-26T08:15:54;98682.19;;;14.06;55.95
76378;BME280;65200;49.500;8.654;2024-02-26T08:18:22;98687.81;;;14.26;55.96
76378;BME280;65200;49.500;8.654;2024-02-26T08:20:50;98695.56;;;14.23;56.30
76378;BME280;65200;49.500;8.654;2024-02-26T08:23:17;98694.19;;;14.20;54.78
76378;BME280;65200;49.500;8.654;2024-02-26T08:25:46;98687.72;;;14.43;54.54
76378;BME280;65200;49.500;8.654;2024-02-26T08:28:14;98689.44;;;14.54;54.88
76378;BME280;65200;49.500;8.654;2024-02-26T08:30:44;98699.78;;;14.14;54.30
76378;BME280;65200;49.500;8.654;2024-02-26T08:33:11;98705.38;;;14.29;54.07
76378;BME280;65200;49.500;8.654;2024-02-26T08:35:40;98699.63;;;14.47;54.46
76378;BME280;65200;49.500;8.654;2024-02-26T08:38:08;98715.38;;;14.33;54.06
76378;BME280;65200;49.500;8.654;2024-02-26T08:40:36;98715.69;;;14.63;54.50
76378;BME280;65200;49.500;8.654;2024-02-26T08:43:05;98706.38;;;14.81;53.62
76378;BME280;65200;49.500;8.654;2024-02-26T08:45:33;98712.97;;;14.95;53.76
76378;BME280;65200;49.500;8.654;2024-02-26T08:48:00;98707.25;;;15.23;52.30
76378;BME280;65200;49.500;8.654;2024-02-26T08:50:28;98709.16;;;15.28;53.20
76378;BME280;65200;49.500;8.654;2024-02-26T08:52:56;98713.00;;;15.00;52.98
76378;BME280;65200;49.500;8.654;2024-02-26T08:55:24;98708.69;;;15.87;51.63
76378;BME280;65200;49.500;8.654;2024-02-26T08:57:51;98711.56;;;15.66;51.20
76378;BME280;65200;49.500;8.654;2024-02-26T09:00:20;98707.75;;;15.62;51.56
76378;BME280;65200;49.500;8.654;2024-02-26T09:02:48;98717.94;;;15.45;51.90
76378;BME280;65200;49.500;8.654;2024-02-26T09:05:16;98712.25;;;15.41;51.05
76378;BME280;65200;49.500;8.654;2024-02-26T09:07:44;98714.28;;;15.29;52.16
76378;BME280;65200;49.500;8.654;2024-02-26T09:10:13;98711.19;;;15.47;51.50
76378;BME280;65200;49.500;8.654;2024-02-26T09:12:40;98713.72;;;15.27;52.57
76378;BME280;65200;49.500;8.654;2024-02-26T09:15:09;98718.91;;;15.34;51.96
76378;BME280;65200;49.500;8.654;2024-02-26T09:17:38;98719.97;;;15.74;52.13
76378;BME280;65200;49.500;8.654;2024-02-26T09:20:06;98726.94;;;15.65;51.62
76378;BME280;65200;49.500;8.654;2024-02-26T09:22:35;98719.97;;;15.69;50.89
76378;BME280;65200;49.500;8.654;2024-02-26T09:25:06;98725.38;;;15.69;51.73
76378;BME280;65200;49.500;8.654;2024-02-26T09:27:34;98723.97;;;14.88;52.60
76378;BME280;65200;49.500;8.654;2024-02-26T09:30:06;98725.53;;;15.16;53.08
76378;BME280;65200;49.500;8.654;2024-02-26T09:32:34;98733.50;;;15.38;52.55
76378;BME280;65200;49.500;8.654;2024-02-26T09:35:04;98728.28;;;15.21;53.13
76378;BME280;65200;49.500;8.654;2024-02-26T09:37:32;98731.56;;;15.70;52.08
76378;BME280;65200;49.500;8.654;2024-02-26T09:40:03;98743.19;;;15.34;52.02
76378;BME280;65200;49.500;8.654;2024-02-26T09:42:33;98750.34;;;15.13;52.14
76378;BME280;65200;49.500;8.654;2024-02-26T09:45:05;98743.00;;;15.40;52.72
76378;BME280;65200;49.500;8.654;2024-02-26T09:47:36;98741.81;;;15.26;52.40
76378;BME280;65200;49.500;8.654;2024-02-26T09:50:07;98747.38;;;15.14;52.97
76378;BME280;65200;49.500;8.654;2024-02-26T09:52:39;98743.09;;;15.55;51.54
76378;BME280;65200;49.500;8.654;2024-02-26T09:55:09;98758.06;;;15.36;51.21
76378;BME280;65200;49.500;8.654;2024-02-26T09:57:37;98741.44;;;15.49;51.57
76378;BME280;65200;49.500;8.654;2024-02-26T10:00:10;98754.66;;;15.46;51.12
76378;BME280;65200;49.500;8.654;2024-02-26T10:02:42;98756.59;;;15.55;51.99
76378;BME280;65200;49.500;8.654;2024-02-26T10:05:12;98753.59;;;15.52;50.81
76378;BME280;65200;49.500;8.654;2024-02-26T10:07:42;98749.69;;;15.74;50.52
76378;BME280;65200;49.500;8.654;2024-02-26T10:10:11;98748.34;;;16.43;50.08
76378;BME280;65200;49.500;8.654;2024-02-26T10:12:39;98744.31;;;16.56;49.45
76378;BME280;65200;49.500;8.654;2024-02-26T10:15:07;98742.81;;;16.08;49.94
76378;BME280;65200;49.500;8.654;2024-02-26T10:17:35;98745.28;;;16.10;49.46
76378;BME280;65200;49.500;8.654;2024-02-26T10:20:16;98744.91;;;16.88;48.88
76378;BME280;65200;49.500;8.654;2024-02-26T10:22:45;98748.97;;;16.91;48.52
76378;BME280;65200;49.500;8.654;2024-02-26T10:25:14;98741.09;;;16.69;48.79
76378;BME280;65200;49.500;8.654;2024-02-26T10:27:41;98742.44;;;17.37;48.11
76378;BME280;65200;49.500;8.654;2024-02-26T10:30:16;98752.22;;;16.93;47.96
76378;BME280;65200;49.500;8.654;2024-02-26T10:32:45;98752.47;;;17.41;46.30
76378;BME280;65200;49.500;8.654;2024-02-26T10:35:15;98757.34;;;16.69;47.61
76378;BME280;65200;49.500;8.654;2024-02-26T10:37:44;98761.16;;;16.98;48.24
76378;BME280;65200;49.500;8.654;2024-02-26T10:40:12;98759.72;;;17.71;48.39
76378;BME280;65200;49.500;8.654;2024-02-26T10:42:41;98756.84;;;18.26;48.43
76378;BME280;65200;49.500;8.654;2024-02-26T10:45:09;98761.34;;;17.82;46.87
76378;BME280;65200;49.500;8.654;2024-02-26T10:47:37;98766.22;;;17.80;47.21
76378;BME280;65200;49.500;8.654;2024-02-26T10:50:06;98758.69;;;17.57;48.23
76378;BME280;65200;49.500;8.654;2024-02-26T10:52:36;98756.28;;;17.25;48.13
76378;BME280;65200;49.500;8.654;2024-02-26T10:55:05;98753.72;;;17.94;46.72
76378;BME280;65200;49.500;8.654;2024-02-26T10:57:35;98755.38;;;17.90;46.73
76378;BME280;65200;49.500;8.654;2024-02-26T11:00:10;98756.53;;;17.59;46.28
76378;BME280;65200;49.500;8.654;2024-02-26T11:02:40;98762.38;;;17.96;47.65
76378;BME280;65200;49.500;8.654;2024-02-26T11:05:33;98777.22;;;18.72;45.57
76378;BME280;65200;49.500;8.654;2024-02-26T11:08:09;98777.03;;;17.95;47.66
76378;BME280;65200;49.500;8.654;2024-02-26T11:10:38;98784.75;;;18.80;44.79
76378;BME280;65200;49.500;8.654;2024-02-26T11:13:09;98787.81;;;18.69;45.05
76378;BME280;65200;49.500;8.654;2024-02-26T11:15:37;98780.66;;;19.22;43.54
76378;BME280;65200;49.500;8.654;2024-02-26T11:18:06;98792.56;;;19.31;44.27
76378;BME280;65200;49.500;8.654;2024-02-26T11:20:38;98791.59;;;19.11;43.97
76378;BME280;65200;49.500;8.654;2024-02-26T11:23:08;98793.00;;;19.71;43.21
76378;BME280;65200;49.500;8.654;2024-02-26T11:25:36;98798.22;;;19.68;42.69
76378;BME280;65200;49.500;8.654;2024-02-26T11:28:09;98801.41;;;19.75;42.54
76378;BME280;65200;49.500;8.654;2024-02-26T11:30:51;98804.97;;;19.70;41.28
76378;BME280;65200;49.500;8.654;2024-02-26T11:33:19;98797.63;;;19.42;43.02
76378;BME280;65200;49.500;8.654;2024-02-26T11:35:47;98796.16;;;20.07;40.85
76378;BME280;65200;49.500;8.654;2024-02-26T11:38:21;98790.91;;;20.39;40.37
76378;BME280;65200;49.500;8.654;2024-02-26T11:40:50;98791.28;;;20.04;41.83
76378;BME280;65200;49.500;8.654;2024-02-26T11:43:17;98791.47;;;20.12;42.91
76378;BME280;65200;49.500;8.654;2024-02-26T11:45:51;98796.44;;;20.05;43.95
76378;BME280;65200;49.500;8.654;2024-02-26T11:48:23;98794.69;;;19.67;41.56
76378;BME280;65200;49.500;8.654;2024-02-26T11:50:53;98799.22;;;19.09;44.07
76378;BME280;65200;49.500;8.654;2024-02-26T11:53:27;98799.66;;;18.88;44.67
76378;BME280;65200;49.500;8.654;2024-02-26T11:56:19;98809.84;;;18.62;46.21
76378;BME280;65200;49.500;8.654;2024-02-26T11:58:47;98799.63;;;18.44;45.72
76378;BME280;65200;49.500;8.654;2024-02-26T12:01:38;98799.00;;;18.57;45.30
76378;BME280;65200;49.500;8.654;2024-02-26T12:04:06;98802.34;;;18.44;44.25
76378;BME280;65200;49.500;8.654;2024-02-26T12:06:45;98805.94;;;18.78;44.47
76378;BME280;65200;49.500;8.654;2024-02-26T12:09:30;98811.75;;;18.62;46.63
76378;BME280;65200;49.500;8.654;2024-02-26T12:11:59;98807.63;;;18.74;46.44
76378;BME280;65200;49.500;8.654;2024-02-26T12:14:26;98812.56;;;17.84;44.98
76378;BME280;65200;49.500;8.654;2024-02-26T12:16:55;98813.84;;;18.11;45.86
76378;BME280;65200;49.500;8.654;2024-02-26T12:19:24;98811.56;;;18.43;44.79
76378;BME280;65200;49.500;8.654;2024-02-26T12:21:52;98818.31;;;18.51;45.26
76378;BME280;65200;49.500;8.654;2024-02-26T12:24:22;98817.47;;;18.60;45.26
76378;BME280;65200;49.500;8.654;2024-02-26T12:26:50;98816.09;;;19.06;43.84
76378;BME280;65200;49.500;8.654;2024-02-26T12:29:18;98827.22;;;19.05;43.13
76378;BME280;65200;49.500;8.654;2024-02-26T12:31:45;98822.97;;;18.94;42.73
76378;BME280;65200;49.500;8.654;2024-02-26T12:34:15;98824.56;;;18.95;44.59
76378;BME280;65200;49.500;8.654;2024-02-26T12:36:44;98833.91;;;18.79;43.40
76378;BME280;65200;49.500;8.654;2024-02-26T12:39:12;98826.44;;;18.56;44.86
76378;BME280;65200;49.500;8.654;2024-02-26T12:41:41;98834.19;;;18.77;45.52
76378;BME280;65200;49.500;8.654;2024-02-26T12:44:15;98826.13;;;19.06;43.43
76378;BME280;65200;49.500;8.654;2024-02-26T12:46:43;98834.09;;;19.65;42.37
76378;BME280;65200;49.500;8.654;2024-02-26T12:49:14;98825.63;;;20.00;41.30
76378;BME280;65200;49.500;8.654;2024-02-26T12:51:44;98833.97;;;19.51;42.63
76378;BME280;65200;49.500;8.654;2024-02-26T12:54:12;98831.00;;;19.09;44.57
76378;BME280;65200;49.500;8.654;2024-02-26T12:56:41;98827.41;;;19.57;42.59
76378;BME280;65200;49.500;8.654;2024-02-26T12:59:09;98832.31;;;20.36;41.46
76378;BME280;65200;49.500;8.654;2024-02-26T13:01:37;98827.06;;;20.63;40.54
76378;BME280;65200;49.500;8.654;2024-02-26T13:04:06;98830.16;;;20.33;42.40
76378;BME280;65200;49.500;8.654;2024-02-26T13:06:34;98830.25;;;20.47;41.10
76378;BME280;65200;49.500;8.654;2024-02-26T13:09:02;98840.97;;;20.38;42.69